sensor_id;sensor_type;location;lat;lon;timestamp;pressure;altitude;pressure_sealevel;temperature;humidity
60240;BME280;46102;39.012;-7.064;2022-08-30T00:02:00;98422.50;;;22.49;49.51
60240;BME280;46102;39.012;-7.064;2022-08-30T00:04:01;98422.50;;;22.49;49.79
60240;BME280;46102;39.012;-7.064;2022-08-30T00:06:03;98425.69;;;22.43;50.04
60240;BME280;46102;39.012;-7.064;2022-08-30T00:08:06;98421.28;;;22.46;50.10
60240;BME280;46102;39.012;-7.064;2022-08-30T00:10:07;98411.31;;;22.45;50.26
60240;BME280;46102;39.012;-7.064;2022-08-30T00:12:08;98417.28;;;22.40;50.32
60240;BME280;46102;39.012;-7.064;2022-08-30T00:14:09;98415.31;;;22.33;50.53
60240;BME280;46102;39.012;-7.064;2022-08-30T00:16:10;98413.31;;;22.30;50.55
60240;BME280;46102;39.012;-7.064;2022-08-30T00:18:11;98410.50;;;22.27;50.90
60240;BME280;46102;39.012;-7.064;2022-08-30T00:20:16;98420.50;;;22.31;51.08
60240;BME280;46102;39.012;-7.064;2022-08-30T00:22:17;98420.06;;;22.15;51.39
60240;BME280;46102;39.012;-7.064;2022-08-30T00:24:18;98421.63;;;22.09;51.55
60240;BME280;46102;39.012;-7.064;2022-08-30T00:26:19;98411.25;;;22.02;51.70
60240;BME280;46102;39.012;-7.064;2022-08-30T00:28:20;98414.44;;;21.97;51.43
60240;BME280;46102;39.012;-7.064;2022-08-30T00:30:21;98413.25;;;21.94;51.80
60240;BME280;46102;39.012;-7.064;2022-08-30T00:32:22;98411.66;;;21.93;51.93
60240;BME280;46102;39.012;-7.064;2022-08-30T00:34:23;98418.03;;;21.90;52.07
60240;BME280;46102;39.012;-7.064;2022-08-30T00:36:24;98409.28;;;21.95;52.14
60240;BME280;46102;39.012;-7.064;2022-08-30T00:38:25;98422.03;;;21.93;52.34
60240;BME280;46102;39.012;-7.064;2022-08-30T00:40:26;98411.66;;;21.90;52.34
60240;BME280;46102;39.012;-7.064;2022-08-30T00:42:27;98417.63;;;21.88;52.30
60240;BME280;46102;39.012;-7.064;2022-08-30T00:44:28;98416.03;;;21.83;52.38
60240;BME280;46102;39.012;-7.064;2022-08-30T00:46:29;98418.41;;;21.81;52.57
60240;BME280;46102;39.012;-7.064;2022-08-30T00:48:31;98416.81;;;21.73;52.80
60240;BME280;46102;39.012;-7.064;2022-08-30T00:50:37;98416.78;;;21.70;52.50
60240;BME280;46102;39.012;-7.064;2022-08-30T00:52:41;98416.81;;;21.73;53.03
60240;BME280;46102;39.012;-7.064;2022-08-30T00:54:54;98419.59;;;21.70;52.62
60240;BME280;46102;39.012;-7.064;2022-08-30T00:57:00;98416.41;;;21.64;53.09
60240;BME280;46102;39.012;-7.064;2022-08-30T00:59:03;98419.53;;;21.48;52.97
60240;BME280;46102;39.012;-7.064;2022-08-30T01:01:05;98415.94;;;21.51;53.57
60240;BME280;46102;39.012;-7.064;2022-08-30T01:03:07;98414.75;;;21.56;52.90
60240;BME280;46102;39.012;-7.064;2022-08-30T01:05:09;98415.13;;;21.44;53.46
60240;BME280;46102;39.012;-7.064;2022-08-30T01:07:11;98419.91;;;21.47;53.02
60240;BME280;46102;39.012;-7.064;2022-08-30T01:09:12;98411.53;;;21.43;53.30
60240;BME280;46102;39.012;-7.064;2022-08-30T01:11:17;98418.31;;;21.46;53.13
60240;BME280;46102;39.012;-7.064;2022-08-30T01:13:21;98418.63;;;21.33;53.29
60240;BME280;46102;39.012;-7.064;2022-08-30T01:15:22;98427.00;;;21.26;53.49
60240;BME280;46102;39.012;-7.064;2022-08-30T01:17:24;98415.81;;;21.23;53.85
60240;BME280;46102;39.012;-7.064;2022-08-30T01:19:48;98420.16;;;21.16;54.00
60240;BME280;46102;39.012;-7.064;2022-08-30T01:21:51;98414.16;;;21.11;53.99
60240;BME280;46102;39.012;-7.064;2022-08-30T01:23:55;98416.13;;;21.03;54.41
60240;BME280;46102;39.012;-7.064;2022-08-30T01:25:57;98422.88;;;20.98;54.15
60240;BME280;46102;39.012;-7.064;2022-08-30T01:28:04;98420.88;;;21.03;54.31
60240;BME280;46102;39.012;-7.064;2022-08-30T01:30:06;98420.88;;;21.03;54.36
60240;BME280;46102;39.012;-7.064;2022-08-30T01:32:07;98420.53;;;21.11;54.47
60240;BME280;46102;39.012;-7.064;2022-08-30T01:34:15;98422.50;;;21.07;54.09
60240;BME280;46102;39.012;-7.064;2022-08-30T01:36:17;98413.31;;;20.99;54.86
60240;BME280;46102;39.012;-7.064;2022-08-30T01:38:25;98418.84;;;20.96;54.96
60240;BME280;46102;39.012;-7.064;2022-08-30T01:40:26;98417.59;;;20.86;54.82
60240;BME280;46102;39.012;-7.064;2022-08-30T01:42:27;98422.34;;;20.78;55.15
60240;BME280;46102;39.012;-7.064;2022-08-30T01:44:28;98414.00;;;20.78;55.28
60240;BME280;46102;39.012;-7.064;2022-08-30T01:46:36;98424.72;;;20.80;55.32
60240;BME280;46102;39.012;-7.064;2022-08-30T01:48:39;98420.75;;;20.77;55.30
60240;BME280;46102;39.012;-7.064;2022-08-30T01:50:41;98419.91;;;20.70;55.40
60240;BME280;46102;39.012;-7.064;2022-08-30T01:52:42;98424.69;;;20.69;55.97
60240;BME280;46102;39.012;-7.064;2022-08-30T01:54:44;98430.25;;;20.69;55.92
60240;BME280;46102;39.012;-7.064;2022-08-30T01:56:45;98431.41;;;20.65;56.22
60240;BME280;46102;39.012;-7.064;2022-08-30T01:58:46;98436.59;;;20.66;56.34
60240;BME280;46102;39.012;-7.064;2022-08-30T02:00:47;98429.81;;;20.64;56.38
60240;BME280;46102;39.012;-7.064;2022-08-30T02:02:47;98426.97;;;20.60;56.32
60240;BME280;46102;39.012;-7.064;2022-08-30T02:04:49;98432.47;;;20.53;56.46
60240;BME280;46102;39.012;-7.064;2022-08-30T02:06:51;98433.69;;;20.55;56.51
60240;BME280;46102;39.012;-7.064;2022-08-30T02:08:52;98439.66;;;20.54;56.96
60240;BME280;46102;39.012;-7.064;2022-08-30T02:10:53;98436.44;;;20.48;56.84
60240;BME280;46102;39.012;-7.064;2022-08-30T02:12:54;98433.22;;;20.43;57.01
60240;BME280;46102;39.012;-7.064;2022-08-30T02:14:55;98437.22;;;20.45;57.32
60240;BME280;46102;39.012;-7.064;2022-08-30T02:16:56;98441.09;;;20.37;57.19
60240;BME280;46102;39.012;-7.064;2022-08-30T02:18:57;98451.09;;;20.38;57.22
60240;BME280;46102;39.012;-7.064;2022-08-30T02:20:58;98450.69;;;20.39;57.46
60240;BME280;46102;39.012;-7.064;2022-08-30T02:22:58;98459.50;;;20.45;57.48
60240;BME280;46102;39.012;-7.064;2022-08-30T02:24:59;98446.72;;;20.44;57.61
60240;BME280;46102;39.012;-7.064;2022-08-30T02:27:00;98455.50;;;20.46;57.63
60240;BME280;46102;39.012;-7.064;2022-08-30T02:29:02;98444.34;;;20.43;57.69
60240;BME280;46102;39.012;-7.064;2022-08-30T02:31:04;98454.28;;;20.40;58.01
60240;BME280;46102;39.012;-7.064;2022-08-30T02:33:05;98451.00;;;20.31;58.35
60240;BME280;46102;39.012;-7.064;2022-08-30T02:35:06;98454.97;;;20.30;58.28
60240;BME280;46102;39.012;-7.064;2022-08-30T02:37:07;98457.78;;;20.30;58.40
60240;BME280;46102;39.012;-7.064;2022-08-30T02:39:09;98459.72;;;20.26;58.64
60240;BME280;46102;39.012;-7.064;2022-08-30T02:41:10;98460.94;;;20.28;58.81
60240;BME280;46102;39.012;-7.064;2022-08-30T02:43:11;98474.06;;;20.28;58.81
60240;BME280;46102;39.012;-7.064;2022-08-30T02:45:11;98468.00;;;20.18;58.65
60240;BME280;46102;39.012;-7.064;2022-08-30T02:47:12;98471.16;;;20.17;58.79
60240;BME280;46102;39.012;-7.064;2022-08-30T02:49:13;98471.16;;;20.13;58.94
60240;BME280;46102;39.012;-7.064;2022-08-30T02:51:14;98473.94;;;20.13;59.05
60240;BME280;46102;39.012;-7.064;2022-08-30T02:53:15;98461.59;;;20.11;58.89
60240;BME280;46102;39.012;-7.064;2022-08-30T02:55:16;98459.59;;;20.11;58.80
60240;BME280;46102;39.012;-7.064;2022-08-30T02:57:17;98460.75;;;20.07;59.06
60240;BME280;46102;39.012;-7.064;2022-08-30T02:59:17;98458.69;;;20.00;59.24
60240;BME280;46102;39.012;-7.064;2022-08-30T03:01:18;98467.00;;;19.96;59.18
60240;BME280;46102;39.012;-7.064;2022-08-30T03:03:19;98461.81;;;19.95;59.10
60240;BME280;46102;39.012;-7.064;2022-08-30T03:05:20;98457.00;;;19.92;59.22
60240;BME280;46102;39.012;-7.064;2022-08-30T03:07:20;98467.34;;;19.91;59.19
60240;BME280;46102;39.012;-7.064;2022-08-30T03:09:21;98466.78;;;19.79;59.36
60240;BME280;46102;39.012;-7.064;2022-08-30T03:11:22;98461.66;;;19.81;59.31
60240;BME280;46102;39.012;-7.064;2022-08-30T03:13:23;98466.44;;;19.80;59.35
60240;BME280;46102;39.012;-7.064;2022-08-30T03:15:25;98468.72;;;19.71;59.42
60240;BME280;46102;39.012;-7.064;2022-08-30T03:17:25;98466.31;;;19.69;59.57
60240;BME280;46102;39.012;-7.064;2022-08-30T03:19:27;98468.22;;;19.65;59.87
60240;BME280;46102;39.012;-7.064;2022-08-30T03:21:27;98470.63;;;19.67;59.70
60240;BME280;46102;39.012;-7.064;2022-08-30T03:23:28;98470.16;;;19.61;59.87
60240;BME280;46102;39.012;-7.064;2022-08-30T03:25:29;98474.50;;;19.59;59.83
60240;BME280;46102;39.012;-7.064;2022-08-30T03:27:30;98468.03;;;19.51;60.08
60240;BME280;46102;39.012;-7.064;2022-08-30T03:29:31;98472.34;;;19.45;60.29
60240;BME280;46102;39.012;-7.064;2022-08-30T03:31:31;98469.97;;;19.47;60.11
60240;BME280;46102;39.012;-7.064;2022-08-30T03:33:32;98465.97;;;19.44;60.27
60240;BME280;46102;39.012;-7.064;2022-08-30T03:35:33;98461.97;;;19.42;60.43
60240;BME280;46102;39.012;-7.064;2022-08-30T03:37:34;98474.97;;;19.34;60.62
60240;BME280;46102;39.012;-7.064;2022-08-30T03:39:35;98477.03;;;19.41;60.49
60240;BME280;46102;39.012;-7.064;2022-08-30T03:41:36;98468.66;;;19.37;60.62
60240;BME280;46102;39.012;-7.064;2022-08-30T03:43:37;98477.75;;;19.34;60.50
60240;BME280;46102;39.012;-7.064;2022-08-30T03:45:38;98477.72;;;19.30;60.61
60240;BME280;46102;39.012;-7.064;2022-08-30T03:47:39;98485.97;;;19.23;60.81
60240;BME280;46102;39.012;-7.064;2022-08-30T03:49:39;98488.34;;;19.25;61.07
60240;BME280;46102;39.012;-7.064;2022-08-30T03:51:40;98484.00;;;19.24;60.83
60240;BME280;46102;39.012;-7.064;2022-08-30T03:53:41;98479.94;;;19.18;60.90
60240;BME280;46102;39.012;-7.064;2022-08-30T03:55:42;98480.28;;;19.16;61.14
60240;BME280;46102;39.012;-7.064;2022-08-30T03:57:42;98482.34;;;19.19;61.03
60240;BME280;46102;39.012;-7.064;2022-08-30T03:59:43;98477.84;;;19.11;61.11
60240;BME280;46102;39.012;-7.064;2022-08-30T04:01:44;98492.94;;;19.10;61.27
60240;BME280;46102;39.012;-7.064;2022-08-30T04:03:45;98495.72;;;19.10;61.32
60240;BME280;46102;39.012;-7.064;2022-08-30T04:05:45;98493.31;;;19.08;61.36
60240;BME280;46102;39.012;-7.064;2022-08-30T04:07:46;98500.75;;;19.01;61.57
60240;BME280;46102;39.012;-7.064;2022-08-30T04:09:47;98493.97;;;18.98;61.65
60240;BME280;46102;39.012;-7.064;2022-08-30T04:11:48;98494.78;;;19.02;61.67
60240;BME280;46102;39.012;-7.064;2022-08-30T04:13:48;98491.97;;;18.99;61.40
60240;BME280;46102;39.012;-7.064;2022-08-30T04:15:51;98488.81;;;19.00;61.83
60240;BME280;46102;39.012;-7.064;2022-08-30T04:17:52;98493.91;;;18.95;61.93
60240;BME280;46102;39.012;-7.064;2022-08-30T04:19:54;98494.75;;;18.99;61.92
60240;BME280;46102;39.012;-7.064;2022-08-30T04:21:55;98499.53;;;18.98;61.85
60240;BME280;46102;39.012;-7.064;2022-08-30T04:23:56;98503.91;;;18.99;61.87
60240;BME280;46102;39.012;-7.064;2022-08-30T04:25:57;98502.72;;;19.00;62.03
60240;BME280;46102;39.012;-7.064;2022-08-30T04:27:59;98509.91;;;19.05;62.13
60240;BME280;46102;39.012;-7.064;2022-08-30T04:30:01;98508.28;;;19.00;62.42
60240;BME280;46102;39.012;-7.064;2022-08-30T04:32:02;98507.47;;;19.00;62.39
60240;BME280;46102;39.012;-7.064;2022-08-30T04:34:03;98502.34;;;19.02;62.35
60240;BME280;46102;39.012;-7.064;2022-08-30T04:36:05;98509.47;;;18.99;62.63
60240;BME280;46102;39.012;-7.064;2022-08-30T04:38:07;98502.34;;;19.02;62.50
60240;BME280;46102;39.012;-7.064;2022-08-30T04:40:09;98501.22;;;19.06;62.39
60240;BME280;46102;39.012;-7.064;2022-08-30T04:42:10;98512.69;;;19.05;62.50
60240;BME280;46102;39.012;-7.064;2022-08-30T04:44:10;98504.75;;;19.03;62.56
60240;BME280;46102;39.012;-7.064;2022-08-30T04:46:11;98502.78;;;19.04;62.45
60240;BME280;46102;39.012;-7.064;2022-08-30T04:48:15;98495.28;;;19.08;62.69
60240;BME280;46102;39.012;-7.064;2022-08-30T04:50:18;98498.41;;;19.03;62.91
60240;BME280;46102;39.012;-7.064;2022-08-30T04:52:19;98499.19;;;19.03;62.99
60240;BME280;46102;39.012;-7.064;2022-08-30T04:54:20;98497.03;;;18.93;63.22
60240;BME280;46102;39.012;-7.064;2022-08-30T04:56:23;98501.06;;;18.96;63.28
60240;BME280;46102;39.012;-7.064;2022-08-30T04:58:24;98505.34;;;18.89;63.35
60240;BME280;46102;39.012;-7.064;2022-08-30T05:00:25;98503.72;;;18.88;63.37
60240;BME280;46102;39.012;-7.064;2022-08-30T05:02:25;98509.78;;;18.94;63.46
60240;BME280;46102;39.012;-7.064;2022-08-30T05:04:26;98509.78;;;18.94;63.30
60240;BME280;46102;39.012;-7.064;2022-08-30T05:06:28;98516.03;;;18.87;63.47
60240;BME280;46102;39.012;-7.064;2022-08-30T05:08:30;98516.34;;;18.82;63.59
60240;BME280;46102;39.012;-7.064;2022-08-30T05:10:31;98523.16;;;18.85;63.42
60240;BME280;46102;39.012;-7.064;2022-08-30T05:12:31;98522.81;;;18.90;63.27
60240;BME280;46102;39.012;-7.064;2022-08-30T05:14:32;98520.28;;;18.81;63.61
60240;BME280;46102;39.012;-7.064;2022-08-30T05:16:33;98526.63;;;18.78;63.70
60240;BME280;46102;39.012;-7.064;2022-08-30T05:18:35;98530.41;;;18.70;63.87
60240;BME280;46102;39.012;-7.064;2022-08-30T05:20:37;98532.38;;;18.69;63.95
60240;BME280;46102;39.012;-7.064;2022-08-30T05:22:40;98529.72;;;18.77;63.87
60240;BME280;46102;39.012;-7.064;2022-08-30T05:24:41;98534.38;;;18.69;63.93
60240;BME280;46102;39.012;-7.064;2022-08-30T05:26:42;98545.78;;;18.64;64.05
60240;BME280;46102;39.012;-7.064;2022-08-30T05:28:43;98536.28;;;18.65;64.22
60240;BME280;46102;39.012;-7.064;2022-08-30T05:30:44;98543.81;;;18.64;64.22
60240;BME280;46102;39.012;-7.064;2022-08-30T05:32:45;98535.09;;;18.66;64.14
60240;BME280;46102;39.012;-7.064;2022-08-30T05:34:46;98538.66;;;18.66;64.35
60240;BME280;46102;39.012;-7.064;2022-08-30T05:36:47;98538.66;;;18.66;64.30
60240;BME280;46102;39.012;-7.064;2022-08-30T05:38:47;98534.72;;;18.67;64.45
60240;BME280;46102;39.012;-7.064;2022-08-30T05:40:49;98541.88;;;18.68;64.66
60240;BME280;46102;39.012;-7.064;2022-08-30T05:42:50;98533.78;;;18.60;64.80
60240;BME280;46102;39.012;-7.064;2022-08-30T05:44:52;98539.34;;;18.60;64.85
60240;BME280;46102;39.012;-7.064;2022-08-30T05:46:53;98540.63;;;18.62;65.01
60240;BME280;46102;39.012;-7.064;2022-08-30T05:48:55;98545.19;;;18.51;65.26
60240;BME280;46102;39.012;-7.064;2022-08-30T05:51:11;98537.75;;;18.59;65.37
60240;BME280;46102;39.012;-7.064;2022-08-30T05:53:12;98546.56;;;18.41;65.87
60240;BME280;46102;39.012;-7.064;2022-08-30T05:55:12;98544.00;;;18.29;66.22
60240;BME280;46102;39.012;-7.064;2022-08-30T05:57:13;98544.78;;;18.29;66.41
60240;BME280;46102;39.012;-7.064;2022-08-30T05:59:14;98551.44;;;18.25;66.55
60240;BME280;46102;39.012;-7.064;2022-08-30T06:01:27;98556.25;;;18.28;66.42
60240;BME280;46102;39.012;-7.064;2022-08-30T06:03:28;98567.66;;;18.23;66.47
60240;BME280;46102;39.012;-7.064;2022-08-30T06:05:29;98566.75;;;18.15;66.68
60240;BME280;46102;39.012;-7.064;2022-08-30T06:07:29;98567.84;;;18.10;67.13
60240;BME280;46102;39.012;-7.064;2022-08-30T06:09:31;98575.34;;;18.10;67.26
60240;BME280;46102;39.012;-7.064;2022-08-30T06:11:32;98576.97;;;18.11;67.09
60240;BME280;46102;39.012;-7.064;2022-08-30T06:13:33;98581.19;;;18.05;67.17
60240;BME280;46102;39.012;-7.064;2022-08-30T06:15:33;98580.72;;;17.99;67.35
60240;BME280;46102;39.012;-7.064;2022-08-30T06:17:34;98586.31;;;18.03;67.23
60240;BME280;46102;39.012;-7.064;2022-08-30T06:19:35;98582.75;;;18.02;67.20
60240;BME280;46102;39.012;-7.064;2022-08-30T06:21:37;98582.88;;;18.09;67.10
60240;BME280;46102;39.012;-7.064;2022-08-30T06:23:38;98588.44;;;18.09;66.85
60240;BME280;46102;39.012;-7.064;2022-08-30T06:25:39;98583.00;;;18.17;66.58
60240;BME280;46102;39.012;-7.064;2022-08-30T06:27:40;98584.69;;;18.21;66.35
60240;BME280;46102;39.012;-7.064;2022-08-30T06:29:41;98583.09;;;18.20;66.28
60240;BME280;46102;39.012;-7.064;2022-08-30T06:31:42;98573.41;;;18.10;66.52
60240;BME280;46102;39.012;-7.064;2022-08-30T06:33:44;98577.47;;;18.17;66.23
60240;BME280;46102;39.012;-7.064;2022-08-30T06:35:44;98575.06;;;18.15;66.32
60240;BME280;46102;39.012;-7.064;2022-08-30T06:37:45;98584.63;;;18.18;66.38
60240;BME280;46102;39.012;-7.064;2022-08-30T06:39:46;98584.50;;;18.10;66.81
60240;BME280;46102;39.012;-7.064;2022-08-30T06:41:47;98596.84;;;18.13;67.02
60240;BME280;46102;39.012;-7.064;2022-08-30T06:44:02;98591.28;;;18.13;67.02
60240;BME280;46102;39.012;-7.064;2022-08-30T06:46:08;98599.38;;;18.22;66.98
60240;BME280;46102;39.012;-7.064;2022-08-30T06:48:09;98590.97;;;18.18;67.09
60240;BME280;46102;39.012;-7.064;2022-08-30T06:50:11;98594.28;;;18.24;66.89
60240;BME280;46102;39.012;-7.064;2022-08-30T06:52:12;98597.63;;;18.33;66.84
60240;BME280;46102;39.012;-7.064;2022-08-30T06:54:13;98598.47;;;18.37;66.76
60240;BME280;46102;39.012;-7.064;2022-08-30T06:56:15;98607.75;;;18.45;66.47
60240;BME280;46102;39.012;-7.064;2022-08-30T06:58:15;98608.69;;;18.52;66.35
60240;BME280;46102;39.012;-7.064;2022-08-30T07:00:17;98605.75;;;18.65;66.00
60240;BME280;46102;39.012;-7.064;2022-08-30T07:02:18;98615.66;;;18.85;65.44
60240;BME280;46102;39.012;-7.064;2022-08-30T07:04:19;98621.06;;;19.01;64.93
60240;BME280;46102;39.012;-7.064;2022-08-30T07:06:20;98626.13;;;19.19;64.44
60240;BME280;46102;39.012;-7.064;2022-08-30T07:08:22;98624.78;;;19.35;64.04
60240;BME280;46102;39.012;-7.064;2022-08-30T07:10:23;98625.22;;;19.64;63.09
60240;BME280;46102;39.012;-7.064;2022-08-30T07:12:24;98624.28;;;19.80;62.53
60240;BME280;46102;39.012;-7.064;2022-08-30T07:14:25;98625.22;;;19.91;62.23
60240;BME280;46102;39.012;-7.064;2022-08-30T07:16:26;98630.91;;;20.02;62.06
60240;BME280;46102;39.012;-7.064;2022-08-30T07:18:26;98631.47;;;20.14;61.42
60240;BME280;46102;39.012;-7.064;2022-08-30T07:20:46;98631.25;;;20.30;61.08
60240;BME280;46102;39.012;-7.064;2022-08-30T07:22:47;98633.44;;;20.48;60.41
60240;BME280;46102;39.012;-7.064;2022-08-30T07:24:48;98624.50;;;20.65;59.90
60240;BME280;46102;39.012;-7.064;2022-08-30T07:26:49;98632.19;;;20.79;59.57
60240;BME280;46102;39.012;-7.064;2022-08-30T07:28:51;98633.84;;;20.87;59.34
60240;BME280;46102;39.012;-7.064;2022-08-30T07:30:52;98624.38;;;20.95;59.06
60240;BME280;46102;39.012;-7.064;2022-08-30T07:32:53;98644.72;;;20.99;58.87
60240;BME280;46102;39.012;-7.064;2022-08-30T07:34:53;98629.69;;;21.11;58.70
60240;BME280;46102;39.012;-7.064;2022-08-30T07:36:54;98641.03;;;21.36;58.13
60240;BME280;46102;39.012;-7.064;2022-08-30T07:38:55;98630.44;;;21.56;57.22
60240;BME280;46102;39.012;-7.064;2022-08-30T07:40:56;98635.72;;;21.72;56.64
60240;BME280;46102;39.012;-7.064;2022-08-30T07:43:00;98627.44;;;21.87;56.41
60240;BME280;46102;39.012;-7.064;2022-08-30T07:45:02;98624.31;;;21.95;56.01
60240;BME280;46102;39.012;-7.064;2022-08-30T07:47:03;98627.53;;;22.08;55.56
60240;BME280;46102;39.012;-7.064;2022-08-30T07:49:05;98626.44;;;22.31;54.88
60240;BME280;46102;39.012;-7.064;2022-08-30T07:51:12;98617.72;;;22.43;54.45
60240;BME280;46102;39.012;-7.064;2022-08-30T07:53:13;98621.75;;;22.67;53.88
60240;BME280;46102;39.012;-7.064;2022-08-30T07:55:13;98627.78;;;22.91;53.19
60240;BME280;46102;39.012;-7.064;2022-08-30T07:57:14;98624.22;;;23.04;52.62
60240;BME280;46102;39.012;-7.064;2022-08-30T07:59:15;98630.22;;;23.10;52.49
60240;BME280;46102;39.012;-7.064;2022-08-30T08:01:17;98634.63;;;23.15;52.32
60240;BME280;46102;39.012;-7.064;2022-08-30T08:03:18;98632.22;;;23.13;52.07
60240;BME280;46102;39.012;-7.064;2022-08-30T08:05:19;98637.44;;;23.15;51.93
60240;BME280;46102;39.012;-7.064;2022-08-30T08:07:20;98633.44;;;23.19;52.04
60240;BME280;46102;39.012;-7.064;2022-08-30T08:09:21;98629.00;;;23.25;51.81
60240;BME280;46102;39.012;-7.064;2022-08-30T08:11:24;98634.19;;;23.45;51.53
60240;BME280;46102;39.012;-7.064;2022-08-30T08:13:25;98640.97;;;23.65;50.36
60240;BME280;46102;39.012;-7.064;2022-08-30T08:15:26;98641.75;;;23.69;50.31
60240;BME280;46102;39.012;-7.064;2022-08-30T08:17:27;98650.94;;;23.84;49.67
60240;BME280;46102;39.012;-7.064;2022-08-30T08:19:28;98655.34;;;23.93;49.99
60240;BME280;46102;39.012;-7.064;2022-08-30T08:21:29;98658.09;;;24.14;49.17
60240;BME280;46102;39.012;-7.064;2022-08-30T08:23:30;98652.78;;;24.34;48.36
60240;BME280;46102;39.012;-7.064;2022-08-30T08:25:31;98652.38;;;24.39;48.05
60240;BME280;46102;39.012;-7.064;2022-08-30T08:27:32;98650.31;;;24.54;47.27
60240;BME280;46102;39.012;-7.064;2022-08-30T08:29:32;98645.91;;;24.53;47.82
60240;BME280;46102;39.012;-7.064;2022-08-30T08:31:33;98646.66;;;24.64;47.53
60240;BME280;46102;39.012;-7.064;2022-08-30T08:33:34;98650.63;;;24.67;47.28
60240;BME280;46102;39.012;-7.064;2022-08-30T08:35:35;98646.44;;;24.97;45.89
60240;BME280;46102;39.012;-7.064;2022-08-30T08:37:37;98658.38;;;25.08;46.21
60240;BME280;46102;39.012;-7.064;2022-08-30T08:39:38;98655.56;;;25.08;46.09
60240;BME280;46102;39.012;-7.064;2022-08-30T08:41:49;98655.53;;;25.19;45.39
60240;BME280;46102;39.012;-7.064;2022-08-30T08:43:55;98642.69;;;25.18;46.09
60240;BME280;46102;39.012;-7.064;2022-08-30T08:48:32;98647.34;;;25.39;46.24
60240;BME280;46102;39.012;-7.064;2022-08-30T08:50:35;98647.88;;;25.64;45.35
60240;BME280;46102;39.012;-7.064;2022-08-30T08:55:23;98647.63;;;26.27;44.27
60240;BME280;46102;39.012;-7.064;2022-08-30T08:57:29;98640.38;;;26.61;43.53
60240;BME280;46102;39.012;-7.064;2022-08-30T08:59:32;98644.09;;;26.81;42.08
60240;BME280;46102;39.012;-7.064;2022-08-30T09:01:33;98642.19;;;27.02;41.90
60240;BME280;46102;39.012;-7.064;2022-08-30T09:03:34;98638.56;;;27.28;41.62
60240;BME280;46102;39.012;-7.064;2022-08-30T09:05:38;98640.84;;;27.37;41.42
60240;BME280;46102;39.012;-7.064;2022-08-30T09:07:42;98639.19;;;27.39;41.80
60240;BME280;46102;39.012;-7.064;2022-08-30T09:09:46;98641.44;;;27.48;41.62
60240;BME280;46102;39.012;-7.064;2022-08-30T09:11:48;98650.09;;;27.61;40.88
60240;BME280;46102;39.012;-7.064;2022-08-30T09:13:49;98650.97;;;27.78;40.41
60240;BME280;46102;39.012;-7.064;2022-08-30T09:15:52;98646.75;;;27.90;40.12
60240;BME280;46102;39.012;-7.064;2022-08-30T09:17:57;98652.50;;;27.82;40.21
60240;BME280;46102;39.012;-7.064;2022-08-30T09:19:59;98652.09;;;27.84;40.33
60240;BME280;46102;39.012;-7.064;2022-08-30T09:22:12;98647.84;;;27.96;39.70
60240;BME280;46102;39.012;-7.064;2022-08-30T09:24:14;98650.75;;;27.92;39.29
60240;BME280;46102;39.012;-7.064;2022-08-30T09:26:28;98657.34;;;28.06;39.16
60240;BME280;46102;39.012;-7.064;2022-08-30T09:28:30;98655.59;;;28.32;38.91
60240;BME280;46102;39.012;-7.064;2022-08-30T09:30:31;98656.56;;;28.41;38.57
60240;BME280;46102;39.012;-7.064;2022-08-30T09:32:36;98655.16;;;28.53;38.05
60240;BME280;46102;39.012;-7.064;2022-08-30T09:34:37;98658.22;;;28.79;38.13
60240;BME280;46102;39.012;-7.064;2022-08-30T09:36:49;98651.44;;;28.93;37.38
60240;BME280;46102;39.012;-7.064;2022-08-30T09:39:03;98651.41;;;29.13;36.76
60240;BME280;46102;39.012;-7.064;2022-08-30T09:41:33;98656.06;;;29.03;36.97
60240;BME280;46102;39.012;-7.064;2022-08-30T09:43:35;98655.38;;;29.32;36.93
60240;BME280;46102;39.012;-7.064;2022-08-30T09:45:41;98662.25;;;29.63;35.81
60240;BME280;46102;39.012;-7.064;2022-08-30T09:47:42;98661.78;;;29.65;35.83
60240;BME280;46102;39.012;-7.064;2022-08-30T09:49:43;98665.16;;;29.60;36.19
60240;BME280;46102;39.012;-7.064;2022-08-30T09:51:51;98665.59;;;29.58;35.61
60240;BME280;46102;39.012;-7.064;2022-08-30T09:54:15;98672.84;;;29.59;35.90
60240;BME280;46102;39.012;-7.064;2022-08-30T09:56:22;98671.34;;;29.71;35.37
60240;BME280;46102;39.012;-7.064;2022-08-30T10:01:06;98672.28;;;29.81;35.09
60240;BME280;46102;39.012;-7.064;2022-08-30T10:10:29;98657.16;;;30.33;34.09
60240;BME280;46102;39.012;-7.064;2022-08-30T10:12:56;98655.22;;;30.30;34.14
60240;BME280;46102;39.012;-7.064;2022-08-30T10:15:13;98669.50;;;30.39;33.79
60240;BME280;46102;39.012;-7.064;2022-08-30T10:22:29;98668.66;;;30.81;32.32
60240;BME280;46102;39.012;-7.064;2022-08-30T10:24:38;98678.78;;;30.95;31.46
60240;BME280;46102;39.012;-7.064;2022-08-30T10:26:47;98666.09;;;30.86;31.94
60240;BME280;46102;39.012;-7.064;2022-08-30T10:28:56;98671.31;;;31.01;31.71
60240;BME280;46102;39.012;-7.064;2022-08-30T10:31:04;98668.69;;;31.19;31.57
60240;BME280;46102;39.012;-7.064;2022-08-30T10:33:22;98673.75;;;31.50;30.84
60240;BME280;46102;39.012;-7.064;2022-08-30T10:35:28;98665.97;;;31.16;31.28
60240;BME280;46102;39.012;-7.064;2022-08-30T10:37:32;98665.06;;;31.06;31.07
60240;BME280;46102;39.012;-7.064;2022-08-30T10:39:48;98663.22;;;31.25;31.11
60240;BME280;46102;39.012;-7.064;2022-08-30T10:41:58;98663.22;;;31.38;31.29
60240;BME280;46102;39.012;-7.064;2022-08-30T10:49:04;98664.44;;;31.62;30.33
60240;BME280;46102;39.012;-7.064;2022-08-30T10:51:14;98666.03;;;31.63;29.98
60240;BME280;46102;39.012;-7.064;2022-08-30T10:53:51;98652.81;;;31.22;30.42
60240;BME280;46102;39.012;-7.064;2022-08-30T10:56:06;98661.13;;;31.03;30.41
60240;BME280;46102;39.012;-7.064;2022-08-30T10:58:08;98650.09;;;31.44;30.30
60240;BME280;46102;39.012;-7.064;2022-08-30T11:00:11;98654.50;;;31.45;29.83
60240;BME280;46102;39.012;-7.064;2022-08-30T11:12:21;98643.28;;;32.33;28.40
60240;BME280;46102;39.012;-7.064;2022-08-30T11:14:24;98633.44;;;32.47;27.25
60240;BME280;46102;39.012;-7.064;2022-08-30T11:16:38;98631.81;;;32.14;27.31
60240;BME280;46102;39.012;-7.064;2022-08-30T11:18:50;98629.31;;;32.17;27.03